createdAt,value
2022-09-03T00:00:27.552Z,9.90
2022-09-03T00:02:59.267Z,9.68
2022-09-03T00:06:01.636Z,10.77
2022-09-03T00:08:44.925Z,10.30
2022-09-03T00:11:41.999Z,10.05
2022-09-03T00:14:30.548Z,10.18
2022-09-03T00:17:20.808Z,9.97
2022-09-03T00:22:57.959Z,9.32
2022-09-03T00:25:47.179Z,9.30
2022-09-03T00:29:03.978Z,9.38
2022-09-03T00:32:09.446Z,9.48
2022-09-03T00:34:50.530Z,10.20
2022-09-03T00:37:23.489Z,9.52
2022-09-03T00:40:01.755Z,11.13
2022-09-03T00:42:59.293Z,10.80
2022-09-03T00:45:54.171Z,9.18
2022-09-03T00:48:41.737Z,9.73
2022-09-03T00:51:47.485Z,9.93
2022-09-03T00:55:00.118Z,9.50
2022-09-03T00:57:52.930Z,9.57
2022-09-03T01:00:23.870Z,11.05
2022-09-03T01:03:20.239Z,9.88
2022-09-03T01:06:25.777Z,10.43
2022-09-03T01:09:58.878Z,10.75
2022-09-03T01:12:55.282Z,10.63
2022-09-03T01:15:46.407Z,11.10
2022-09-03T01:18:43.454Z,11.38
2022-09-03T01:22:00.807Z,10.05
2022-09-03T01:24:51.581Z,10.02
2022-09-03T01:27:42.615Z,10.05
2022-09-03T01:30:20.700Z,10.27
2022-09-03T01:32:54.918Z,10.13
2022-09-03T01:35:54.828Z,9.60
2022-09-03T01:38:40.343Z,9.98
2022-09-03T01:41:47.296Z,10.25
2022-09-03T01:44:27.454Z,9.30
2022-09-03T01:47:34.811Z,10.30
2022-09-03T01:50:25.547Z,12.05
2022-09-03T01:53:27.391Z,9.20
2022-09-03T01:56:17.392Z,9.68
2022-09-03T01:59:05.024Z,10.43
2022-09-03T02:01:56.301Z,10.57
2022-09-03T02:04:29.441Z,11.05
2022-09-03T02:07:01.498Z,10.20
2022-09-03T02:09:35.308Z,10.63
2022-09-03T02:12:10.614Z,10.10
2022-09-03T02:14:41.329Z,10.13
2022-09-03T02:17:11.134Z,12.63
2022-09-03T02:19:42.237Z,9.77
2022-09-03T02:22:14.113Z,9.55
2022-09-03T02:24:51.183Z,9.48
2022-09-03T02:27:23.283Z,9.70
2022-09-03T02:29:57.976Z,10.07
2022-09-03T02:32:30.813Z,9.65
2022-09-03T02:35:00.772Z,9.85
2022-09-03T02:37:31.300Z,9.45
2022-09-03T02:40:01.752Z,9.35
2022-09-03T02:42:32.030Z,9.38
2022-09-03T02:45:14.152Z,9.57
2022-09-03T02:47:47.511Z,9.63
2022-09-03T02:50:25.865Z,9.30
2022-09-03T02:53:01.102Z,9.23
2022-09-03T02:55:30.760Z,10.00
2022-09-03T02:58:06.972Z,9.27
2022-09-03T03:00:44.784Z,9.63
2022-09-03T03:03:27.592Z,9.93
2022-09-03T03:06:06.279Z,9.55
2022-09-03T03:08:42.680Z,10.77
2022-09-03T03:11:20.509Z,10.52
2022-09-03T03:13:56.414Z,9.00
2022-09-03T03:16:40.623Z,10.63
2022-09-03T03:19:15.348Z,9.73
2022-09-03T03:21:55.465Z,11.05
2022-09-03T03:24:33.507Z,10.05
2022-09-03T03:27:14.372Z,9.40
2022-09-03T03:29:47.020Z,9.88
2022-09-03T03:32:23.724Z,10.00
2022-09-03T03:35:05.931Z,8.63
2022-09-03T03:37:45.637Z,10.30
2022-09-03T03:40:25.839Z,9.85
2022-09-03T03:43:03.638Z,9.32
2022-09-03T03:45:46.663Z,9.85
2022-09-03T03:48:23.949Z,9.65
2022-09-03T03:51:03.957Z,10.65
2022-09-03T03:54:03.126Z,10.15
2022-09-03T03:56:43.516Z,10.13
2022-09-03T03:59:28.491Z,10.25
2022-09-03T04:02:06.235Z,10.85
2022-09-03T04:04:39.788Z,10.93
2022-09-03T04:07:21.489Z,10.25
2022-09-03T04:09:53.964Z,10.20
2022-09-03T04:12:32.875Z,11.05
2022-09-03T04:15:00.004Z,10.35
2022-09-03T04:17:29.192Z,11.40
2022-09-03T04:19:56.631Z,10.45
2022-09-03T04:22:24.062Z,10.43
2022-09-03T04:24:51.293Z,9.38
2022-09-03T04:27:20.403Z,9.98
2022-09-03T04:29:49.793Z,10.30
2022-09-03T04:32:38.869Z,10.43
2022-09-03T04:35:09.827Z,10.70
2022-09-03T04:37:45.342Z,11.65
2022-09-03T04:40:12.770Z,10.60
2022-09-03T04:42:42.314Z,10.68
2022-09-03T04:45:23.507Z,11.43
2022-09-03T04:48:05.999Z,10.77
2022-09-03T04:50:36.372Z,10.90
2022-09-03T04:53:08.266Z,10.43
2022-09-03T04:55:43.501Z,10.32
2022-09-03T04:58:16.226Z,10.15
2022-09-03T05:00:48.168Z,11.32
2022-09-03T05:03:24.226Z,10.73
2022-09-03T05:06:07.416Z,10.10
2022-09-03T05:08:37.782Z,11.95
2022-09-03T05:11:11.163Z,11.45
2022-09-03T05:13:40.878Z,11.07
2022-09-03T05:16:13.431Z,11.43
2022-09-03T05:18:43.671Z,11.27
2022-09-03T05:21:23.028Z,11.38
2022-09-03T05:23:56.354Z,11.93
2022-09-03T05:26:28.097Z,12.60
2022-09-03T05:29:03.016Z,12.05
2022-09-03T05:31:34.689Z,12.00
2022-09-03T05:34:10.060Z,12.05
2022-09-03T05:36:43.080Z,12.65
2022-09-03T05:39:36.773Z,12.57
2022-09-03T05:42:30.754Z,12.48
2022-09-03T05:45:29.146Z,11.77
2022-09-03T05:48:11.357Z,12.30
2022-09-03T05:50:39.489Z,13.35
2022-09-03T05:53:30.605Z,12.80
2022-09-03T05:56:01.971Z,13.18
2022-09-03T05:58:41.327Z,12.07
2022-09-03T06:01:26.052Z,11.50
2022-09-03T06:04:06.174Z,12.07
2022-09-03T06:09:08.390Z,13.02
2022-09-03T06:11:40.145Z,13.18
2022-09-03T06:14:13.447Z,12.45
2022-09-03T06:16:46.047Z,12.77
2022-09-03T06:19:16.239Z,12.77
2022-09-03T06:21:48.424Z,13.38
2022-09-03T06:24:21.417Z,13.95
2022-09-03T06:26:51.719Z,14.25
2022-09-03T06:29:22.204Z,14.20
2022-09-03T06:31:52.380Z,16.60
2022-09-03T06:34:24.181Z,13.27
2022-09-03T06:37:06.281Z,15.57
2022-09-03T06:39:36.740Z,14.05
2022-09-03T06:42:06.459Z,13.13
2022-09-03T06:47:08.653Z,13.52
2022-09-03T06:49:39.390Z,13.75
2022-09-03T06:52:12.643Z,14.25
2022-09-03T06:54:42.084Z,14.30
2022-09-03T06:57:12.101Z,13.98
2022-09-03T06:59:42.222Z,13.70
2022-09-03T07:02:11.183Z,16.27
2022-09-03T07:04:40.616Z,14.60
2022-09-03T07:07:17.700Z,13.07
2022-09-03T07:09:48.496Z,13.73
2022-09-03T07:12:20.837Z,12.32
2022-09-03T07:14:54.968Z,13.63
2022-09-03T07:17:36.113Z,13.15
2022-09-03T07:20:06.529Z,12.77
2022-09-03T07:22:41.047Z,14.18
2022-09-03T07:25:11.988Z,13.25
2022-09-03T07:27:41.596Z,12.77
2022-09-03T07:30:15.948Z,13.07
2022-09-03T07:32:50.404Z,12.25
2022-09-03T07:35:22.356Z,11.82
2022-09-03T07:37:57.825Z,11.93
2022-09-03T07:40:35.600Z,12.35
2022-09-03T07:43:07.513Z,12.25
2022-09-03T07:45:35.723Z,11.82
2022-09-03T07:48:05.081Z,11.40
2022-09-03T07:50:39.861Z,13.27
2022-09-03T07:53:11.911Z,11.55
2022-09-03T07:55:51.801Z,11.43
2022-09-03T07:58:37.117Z,11.25
2022-09-03T08:01:11.575Z,10.82
2022-09-03T08:03:51.865Z,11.80
2022-09-03T08:06:31.831Z,11.50
2022-09-03T08:09:15.425Z,12.65
2022-09-03T08:11:53.183Z,11.70
2022-09-03T08:14:24.450Z,11.52
2022-09-03T08:16:58.499Z,11.15
2022-09-03T08:19:26.713Z,13.18
2022-09-03T08:22:00.911Z,12.48
2022-09-03T08:24:34.971Z,10.38
2022-09-03T08:27:09.354Z,11.07
2022-09-03T08:29:44.302Z,9.02
2022-09-03T08:32:24.393Z,10.20
2022-09-03T08:34:53.833Z,9.95
2022-09-03T08:37:39.156Z,9.20
2022-09-03T08:40:14.842Z,11.50
2022-09-03T08:43:09.762Z,11.00
2022-09-03T08:45:51.764Z,9.98
2022-09-03T08:48:25.868Z,10.38
2022-09-03T08:51:08.700Z,9.57
2022-09-03T08:54:09.277Z,10.02
2022-09-03T08:56:46.740Z,10.65
2022-09-03T08:59:30.074Z,10.75
2022-09-03T09:02:10.046Z,9.73
2022-09-03T09:05:21.394Z,10.00
2022-09-03T09:08:11.265Z,10.07
2022-09-03T09:11:23.097Z,10.35
2022-09-03T09:14:08.752Z,8.80
2022-09-03T09:17:16.269Z,7.53
2022-09-03T09:20:12.992Z,7.10
2022-09-03T09:22:48.741Z,9.18
2022-09-03T09:25:30.195Z,7.25
2022-09-03T09:28:32.192Z,7.47
2022-09-03T09:31:13.823Z,7.38
2022-09-03T09:33:52.119Z,7.88
2022-09-03T09:36:35.062Z,7.75
2022-09-03T09:39:21.065Z,7.93
2022-09-03T09:42:18.905Z,10.13
2022-09-03T09:44:53.710Z,11.70
2022-09-03T09:47:45.019Z,8.25
2022-09-03T09:50:30.635Z,8.02
2022-09-03T09:53:30.831Z,7.97
2022-09-03T09:56:04.990Z,8.50
2022-09-03T09:58:39.474Z,8.07
2022-09-03T10:01:27.650Z,7.80
2022-09-03T10:04:32.882Z,9.83
2022-09-03T10:07:44.899Z,7.18
2022-09-03T10:10:20.981Z,8.32
2022-09-03T10:13:12.035Z,9.43
2022-09-03T10:15:54.627Z,8.70
2022-09-03T10:18:34.177Z,7.55
2022-09-03T10:21:28.051Z,7.93
2022-09-03T10:24:28.083Z,6.47
2022-09-03T10:27:14.815Z,7.53
2022-09-03T10:29:55.732Z,7.22
2022-09-03T10:33:14.210Z,7.10
2022-09-03T10:36:28.116Z,9.82
2022-09-03T10:39:22.020Z,6.72
2022-09-03T10:42:13.253Z,7.70
2022-09-03T10:45:13.782Z,8.02
2022-09-03T10:48:33.586Z,7.25
2022-09-03T10:51:49.240Z,7.22
2022-09-03T10:54:35.071Z,7.18
2022-09-03T10:57:26.487Z,8.15
2022-09-03T11:00:14.576Z,7.07
2022-09-03T11:02:50.239Z,7.55
2022-09-03T11:09:23.883Z,6.63
2022-09-03T11:12:12.068Z,8.35
2022-09-03T11:14:50.637Z,9.57
2022-09-03T11:17:43.352Z,9.35
2022-09-03T11:20:28.048Z,11.77
2022-09-03T11:23:12.272Z,8.60
2022-09-03T11:28:59.369Z,9.10
2022-09-03T11:31:39.731Z,9.88
2022-09-03T11:34:23.389Z,9.10
2022-09-03T11:36:50.702Z,8.68
2022-09-03T11:39:24.852Z,8.50
2022-09-03T11:42:07.901Z,8.95
2022-09-03T11:44:48.430Z,8.35
2022-09-03T11:47:38.746Z,8.55
2022-09-03T11:50:24.108Z,7.72
2022-09-03T11:52:53.480Z,7.35
2022-09-03T11:55:26.455Z,7.43
2022-09-03T11:57:53.782Z,7.30
2022-09-03T12:00:25.173Z,7.72
2022-09-03T12:02:59.072Z,6.88
2022-09-03T12:05:44.288Z,6.88
2022-09-03T12:08:47.381Z,7.30
2022-09-03T12:11:14.317Z,6.60
2022-09-03T12:14:35.204Z,6.47
2022-09-03T12:18:16.166Z,6.70
2022-09-03T12:20:44.347Z,5.38
2022-09-03T12:23:13.176Z,4.90
2022-09-03T12:25:49.492Z,5.93
2022-09-03T12:28:23.701Z,5.47
2022-09-03T12:30:53.834Z,5.60
2022-09-03T12:33:23.398Z,4.80
2022-09-03T12:35:58.744Z,6.90
2022-09-03T12:38:27.617Z,5.45
2022-09-03T12:43:46.184Z,5.53
2022-09-03T12:46:17.651Z,5.53
2022-09-03T12:51:52.059Z,4.68
2022-09-03T12:54:21.290Z,5.60
2022-09-03T12:56:56.458Z,5.18
2022-09-03T12:59:25.460Z,5.80
2022-09-03T13:01:56.827Z,5.15
2022-09-03T13:04:36.633Z,5.57
2022-09-03T13:07:08.173Z,5.75
2022-09-03T13:09:38.307Z,6.13
2022-09-03T13:12:06.053Z,5.10
2022-09-03T13:14:48.288Z,5.57
2022-09-03T13:17:42.961Z,5.93
2022-09-03T13:20:22.950Z,5.15
2022-09-03T13:23:20.548Z,5.47
2022-09-03T13:26:24.149Z,5.50
2022-09-03T13:28:58.423Z,5.72
2022-09-03T13:31:42.811Z,5.38
2022-09-03T13:34:22.486Z,4.88
2022-09-03T13:37:06.045Z,7.93
2022-09-03T13:39:52.660Z,5.50
2022-09-03T13:42:42.828Z,5.70
2022-09-03T13:45:38.798Z,5.47
2022-09-03T13:48:50.947Z,8.15
2022-09-03T13:51:43.706Z,6.93
2022-09-03T13:54:47.776Z,8.00
2022-09-03T13:57:35.061Z,5.13
2022-09-03T14:00:22.182Z,6.22
2022-09-03T14:02:58.219Z,5.45
2022-09-03T14:05:34.119Z,5.90
2022-09-03T14:08:22.815Z,5.55
2022-09-03T14:11:02.122Z,5.38
2022-09-03T14:14:02.892Z,8.27
2022-09-03T14:16:29.927Z,7.47
2022-09-03T14:19:11.777Z,5.50
2022-09-03T14:22:06.298Z,6.05
2022-09-03T14:24:55.706Z,5.63
2022-09-03T14:27:31.770Z,5.70
2022-09-03T14:30:06.711Z,5.40
2022-09-03T14:33:05.988Z,5.50
2022-09-03T14:35:46.122Z,6.13
2022-09-03T14:38:30.884Z,6.05
2022-09-03T14:41:20.860Z,5.97
2022-09-03T14:44:18.757Z,5.40
2022-09-03T14:47:08.500Z,5.90
2022-09-03T14:49:57.871Z,10.10
2022-09-03T14:52:24.556Z,6.20
2022-09-03T14:55:03.891Z,8.18
2022-09-03T14:57:55.272Z,9.27
2022-09-03T15:00:43.540Z,6.63
2022-09-03T15:03:28.276Z,9.82
2022-09-03T15:05:55.073Z,7.95
2022-09-03T15:08:34.002Z,7.93
2022-09-03T15:11:04.177Z,8.70
2022-09-03T15:13:34.890Z,7.75
2022-09-03T15:16:01.751Z,6.22
2022-09-03T15:18:58.986Z,6.43
2022-09-03T15:21:44.014Z,6.15
2022-09-03T15:24:43.796Z,7.03
2022-09-03T15:27:33.942Z,9.38
2022-09-03T15:30:11.208Z,6.22
2022-09-03T15:32:52.056Z,6.00
2022-09-03T15:35:38.299Z,7.90
2022-09-03T15:38:20.928Z,6.20
2022-09-03T15:40:47.675Z,6.35
2022-09-03T15:43:28.088Z,6.30
2022-09-03T15:46:00.223Z,6.95
2022-09-03T15:48:36.108Z,6.72
2022-09-03T15:51:26.274Z,8.70
2022-09-03T15:53:56.331Z,6.63
2022-09-03T15:56:32.765Z,6.35
2022-09-03T15:59:30.030Z,5.82
2022-09-03T16:02:05.885Z,6.47
2022-09-03T16:05:12.606Z,7.32
2022-09-03T16:07:50.333Z,7.15
2022-09-03T16:10:26.477Z,6.22
2022-09-03T16:13:14.938Z,7.40
2022-09-03T16:15:58.018Z,6.63
2022-09-03T16:18:39.365Z,6.18
2022-09-03T16:21:25.947Z,9.88
2022-09-03T16:23:59.078Z,6.47
2022-09-03T16:26:29.725Z,6.45
2022-09-03T16:29:17.459Z,7.73
2022-09-03T16:31:58.098Z,6.55
2022-09-03T16:34:37.484Z,7.32
2022-09-03T16:37:10.085Z,7.28
2022-09-03T16:39:55.655Z,7.28
2022-09-03T16:42:42.807Z,6.10
2022-09-03T16:45:38.274Z,6.60
2022-09-03T16:48:26.847Z,6.18
2022-09-03T16:51:06.673Z,6.60
2022-09-03T16:54:12.226Z,6.45
2022-09-03T16:57:00.462Z,6.03
2022-09-03T16:59:48.505Z,9.43
2022-09-03T17:02:39.872Z,6.80
2022-09-03T17:05:41.284Z,7.03
2022-09-03T17:08:14.487Z,6.88
2022-09-03T17:10:41.349Z,7.55
2022-09-03T17:13:32.517Z,6.65
2022-09-03T17:16:08.382Z,7.03
2022-09-03T17:18:53.302Z,8.95
2022-09-03T17:21:38.811Z,7.88
2022-09-03T17:24:13.778Z,6.47
2022-09-03T17:27:03.519Z,7.03
2022-09-03T17:29:55.726Z,7.05
2022-09-03T17:32:46.265Z,7.28
2022-09-03T17:35:20.223Z,8.73
2022-09-03T17:37:56.726Z,6.40
2022-09-03T17:40:36.771Z,9.27
2022-09-03T17:43:17.155Z,6.97
2022-09-03T17:46:26.323Z,7.18
2022-09-03T17:48:55.961Z,8.23
2022-09-03T17:51:36.041Z,7.35
2022-09-03T17:54:07.615Z,7.32
2022-09-03T17:56:50.079Z,7.55
2022-09-03T17:59:40.843Z,9.35
2022-09-03T18:02:18.275Z,8.68
2022-09-03T18:05:08.253Z,7.18
2022-09-03T18:08:01.026Z,9.48
2022-09-03T18:10:34.662Z,7.32
2022-09-03T18:13:23.742Z,7.18
2022-09-03T18:16:07.508Z,7.00
2022-09-03T18:18:43.169Z,6.95
2022-09-03T18:21:32.835Z,8.55
2022-09-03T18:24:26.355Z,8.35
2022-09-03T18:27:18.332Z,9.68
2022-09-03T18:30:08.872Z,8.18
2022-09-03T18:32:54.380Z,7.35
2022-09-03T18:35:40.243Z,7.68
2022-09-03T18:38:25.422Z,8.15
2022-09-03T18:41:58.477Z,8.00
2022-09-03T18:45:20.320Z,7.45
2022-09-03T18:48:25.252Z,7.57
2022-09-03T18:51:24.901Z,7.32
2022-09-03T18:54:25.371Z,7.15
2022-09-03T18:57:12.238Z,7.55
2022-09-03T19:00:26.677Z,7.53
2022-09-03T19:03:29.945Z,9.48
2022-09-03T19:06:50.794Z,10.20
2022-09-03T19:10:07.151Z,7.22
2022-09-03T19:13:04.758Z,9.50
2022-09-03T19:16:16.142Z,7.00
2022-09-03T19:19:22.871Z,6.82
2022-09-03T19:22:15.541Z,7.30
2022-09-03T19:25:01.207Z,7.60
2022-09-03T19:28:00.468Z,6.97
2022-09-03T19:31:13.797Z,8.20
2022-09-03T19:34:17.805Z,6.50
2022-09-03T19:37:18.181Z,6.07
2022-09-03T19:40:23.777Z,7.07
2022-09-03T19:43:18.061Z,6.65
2022-09-03T19:46:13.182Z,5.90
2022-09-03T19:49:16.981Z,6.22
2022-09-03T19:52:49.007Z,6.20
2022-09-03T19:55:44.224Z,5.50
2022-09-03T19:58:43.130Z,6.53
2022-09-03T20:01:29.844Z,5.80
2022-09-03T20:04:18.422Z,6.55
2022-09-03T20:07:06.145Z,5.78
2022-09-03T20:09:58.752Z,6.20
2022-09-03T20:12:31.564Z,6.63
2022-09-03T20:14:58.468Z,6.20
2022-09-03T20:17:31.589Z,6.03
2022-09-03T20:20:07.431Z,6.20
2022-09-03T20:22:54.464Z,6.90
2022-09-03T20:25:41.406Z,6.03
2022-09-03T20:28:31.982Z,6.30
2022-09-03T20:31:05.811Z,6.45
2022-09-03T20:33:39.031Z,6.10
2022-09-03T20:36:08.762Z,5.72
2022-09-03T20:39:16.149Z,7.43
2022-09-03T20:41:59.011Z,6.10
2022-09-03T20:44:38.093Z,6.25
2022-09-03T20:47:31.175Z,6.25
2022-09-03T20:50:22.000Z,8.05
2022-09-03T20:52:56.883Z,6.53
2022-09-03T20:55:29.217Z,5.90
2022-09-03T20:58:18.711Z,6.68
2022-09-03T21:00:53.981Z,6.80
2022-09-03T21:04:08.123Z,6.28
2022-09-03T21:06:50.622Z,7.32
2022-09-03T21:09:23.566Z,6.57
2022-09-03T21:12:05.113Z,6.97
2022-09-03T21:14:47.038Z,6.53
2022-09-03T21:17:28.187Z,6.53
2022-09-03T21:20:21.774Z,6.43
2022-09-03T21:22:53.045Z,6.80
2022-09-03T21:25:33.070Z,7.03
2022-09-03T21:28:06.036Z,7.15
2022-09-03T21:30:38.280Z,6.93
2022-09-03T21:33:11.994Z,6.55
2022-09-03T21:35:53.572Z,7.35
2022-09-03T21:38:31.678Z,6.30
2022-09-03T21:41:20.346Z,7.70
2022-09-03T21:43:57.626Z,9.35
2022-09-03T21:46:57.044Z,6.38
2022-09-03T21:49:29.717Z,7.25
2022-09-03T21:52:11.626Z,6.38
2022-09-03T21:54:38.567Z,6.90
2022-09-03T21:57:23.586Z,6.63
2022-09-03T22:00:09.288Z,6.40
2022-09-03T22:02:36.549Z,6.43
2022-09-03T22:05:05.198Z,6.55
2022-09-03T22:08:24.681Z,5.88
2022-09-03T22:11:02.212Z,6.88
2022-09-03T22:13:35.953Z,5.57
2022-09-03T22:16:39.474Z,6.80
2022-09-03T22:19:09.228Z,6.70
2022-09-03T22:21:47.894Z,7.07
2022-09-03T22:24:26.722Z,6.47
2022-09-03T22:27:15.729Z,6.97
2022-09-03T22:29:51.702Z,6.25
2022-09-03T22:32:33.830Z,6.15
2022-09-03T22:35:25.079Z,7.65
2022-09-03T22:38:00.983Z,6.10
2022-09-03T22:40:36.813Z,6.60
2022-09-03T22:43:12.525Z,5.93
2022-09-03T22:45:58.865Z,6.05
2022-09-03T22:48:51.651Z,6.10
2022-09-03T22:51:21.740Z,6.13
2022-09-03T22:54:00.857Z,6.32
2022-09-03T22:56:32.467Z,5.90
2022-09-03T22:59:19.517Z,5.93
2022-09-03T23:02:00.649Z,6.25
2022-09-03T23:04:40.201Z,6.00
2022-09-03T23:07:21.854Z,5.40
2022-09-03T23:09:55.854Z,6.15
2022-09-03T23:12:35.649Z,6.53
2022-09-03T23:17:40.859Z,5.60
2022-09-03T23:20:22.648Z,6.20
2022-09-03T23:23:00.101Z,6.65
2022-09-03T23:25:31.491Z,6.10
2022-09-03T23:28:10.097Z,7.82
2022-09-03T23:30:37.442Z,5.95
2022-09-03T23:33:04.318Z,6.65
2022-09-03T23:35:42.699Z,6.03
2022-09-03T23:38:54.743Z,6.07
2022-09-03T23:41:34.853Z,6.40
2022-09-03T23:44:09.157Z,6.90
2022-09-03T23:46:53.581Z,6.85
2022-09-03T23:49:29.431Z,6.05
2022-09-03T23:52:19.362Z,6.88
2022-09-03T23:54:58.482Z,6.75
2022-09-03T23:57:35.803Z,6.40
